Bridgeport, Michigan
Current Conditions -  °F | °C
As of 6:15 AM on Sunday 23 Nov 2014 (Local Time) from KHYX Reporting Station
Overcast Overcast  
Wind Chill: 43°   Ceiling: 1700
Heat Index: 46°   Visibility: 10mi
Dew Point: 46°   Wind: 7mph
Humidity: 100%   Direction: 170°S
Pressure: 29.85"   Gusts: NA
Location:  43.36°N, 83.88°W
Report Text: KHYX 231115Z AUTO 17006KT 10SM BKN017 OVC026 08/08 A2985 RMK AO2
Loading
Personal Weather Stations






























Interactive Weather Map New forecast layout! Learn more

10-Day Weather Forecast

Advertisements
Track Severe Weather on mobile